Terminal Aerodrome Forecast
Issued by NWS

Home | Current Version | Previous Version | Text Only | Print | Product List | Glossary On
Versions: 1 2 3 4 5 6 7 8 9 10 11 12 13 14 15 16 17 18 19 20 21 22 23 24 25 26 27 28 29 30
618
FTAK31 PAFA 290017 AAA
TAFAQT
TAF AMD
PAQT 290017Z 2900/2924 28015KT P6SM BKN006 BKN012 OVC100
      TEMPO 2901/2903 26018G25KT BKN015
     FM291000 27005KT 6SM BR SCT005 OVC025=

USA.gov is the U.S. government's official web portal to all federal, state and local government web resources and services.